METAR Data
IDs: Format: Raw Decoded Include TAF

Data at: 1252 UTC 26 Feb 2021

WSSS 261230Z 01009KT 9999 FEW018 BKN300 27/24 Q1007 NOSIG